Ampere, New Jersey
Current Conditions -  °F | °C
As of 9:51 PM on Wednesday 26 Nov 2014 (Local Time) from KEWR Reporting Station
Light Rain Light Rain  
Wind Chill: 27°   Ceiling: 2800
Heat Index: 36°   Visibility: 8mi
Dew Point: 34°   Wind: 15mph
Humidity: 93%   Direction: 330°NNW
Pressure: 29.82"   Gusts: NA
Location:  40.7716°N, 74.2073°W
Report Text: KEWR 270251Z 33013KT 8SM -RA FEW015 BKN028 OVC040 02/01 A2982 RMK AO2 SLP097 P0000 60007 T00220011 51006
Loading
Personal Weather Stations






























Interactive Weather Map New forecast layout! Learn more

10-Day Weather Forecast

Advertisements
Track Severe Weather on mobile